York Harbor, ME

4:28 PM EDT on July 04, 2015 (GMT -0400)
York Village | | Change Station
CLOSE
Current Station
Personal Weather Station
Location: York, ME
Elevation: 56 ft
Nearby Weather Stations

Elev 56 ft 43.14 °N, 70.65 °W | Updated 3 seconds ago

Mostly Cloudy
Mostly Cloudy
69.1 °F
Feels Like 69.1 °F
N
0.0
Wind Variable Wind from SSE
Gusts 0.0 mph

Today
High -- | Low -- °F
--% Chance of Precip.
Yesterday
High -- | Low -- °F
Precip. -- in
5:08 AM 8:25 PM
Waning Gibbous, 90% visible
Pressure 29.98 in
Visibility 10.0 miles
Clouds Few 5000 ft
Mostly Cloudy 11000 ft
Overcast 20000 ft
Dew Point 63 °F
Humidity 82%
Rainfall 0.00 in
Snow Depth Not available.
UV 2 out of 12
Pollen 3.50 out of 12
Air Quality Not available.
Flu Activity Not available.
METAR KPSM 041958Z 28004KT 10SM -RA FEW050 BKN110 OVC200 21/16 A2997 RMK AO2A RAB1940 SLP151 P0000 T02120159

More Conditions Fewer Conditions

Pressure 29.98 in
Visibility 10.0 miles
Clouds Few 5000 ft
Mostly Cloudy 11000 ft
Overcast 20000 ft
Dew Point 63 °F
Humidity 82%
Rainfall 0.00 in
Snow Depth Not available.
UV 2 out of 12
Pollen 3.50 out of 12
Air Quality Not available.
Flu Activity Not available.
METAR KPSM 041958Z 28004KT 10SM -RA FEW050 BKN110 OVC200 21/16 A2997 RMK AO2A RAB1940 SLP151 P0000 T02120159

More Conditions Fewer Conditions

10-Day Weather Forecast

×

Almanac

Astronomy

Jul. 04, 2015 Rise Set
Actual Time
Civil Twilight
Nautical Twilight
Astronomical Twilight
Moon
Length of Visible Light
Length of Day
Tomorrow will be .
, % of the Moon is Illuminated

Today's Extremes

State Highs State Lows

Community

WunderPhotos

Upload Photos

1,835,086 photos uploaded!

WunderBlogs® & News

Nearby

Air Quality

  Air Quality AQ Index Pollutant
Not available.

Snow Depth

Station Depth Elevation

Earthquake Activity

City Distance Mag. Time & Date
Minimum magnitude displayed is 2.5.

Coastal Water Temperatures

Place Temperature

Stations

Nearby Weather Stations

Station Location Temp. Windchill Dew Point Humidity Wind Precip. Elev Updated Type